Time;durP1;ratioP1;P1;durP2;ratioP2;P2;SDS_P1;SDS_P2;PMS_P1;PMS_P2;Temp;Humidity;BMP_temperature;BMP_pressure;BME280_temperature;BME280_humidity;BME280_pressure;Samples;Min_cycle;Max_cycle;Signal;HPM_P1;HPM_P2
2022/07/10 00:00:17;;;;;;;0.40;0.30;;;18.10;54.60;20.30;94509.00;;;;10477741;28;46029;-64
2022/07/10 00:05:38;;;;;;;0.70;0.40;;;18.10;54.60;20.20;94511.00;;;;10475368;28;45707;-64
2022/07/10 00:10:59;;;;;;;0.47;0.30;;;18.10;54.60;20.20;94505.00;;;;10476492;28;45311;-63
2022/07/10 00:16:20;;;;;;;0.47;0.40;;;18.00;54.60;20.20;94492.00;;;;10477193;28;45109;-63
2022/07/10 00:21:41;;;;;;;0.40;0.40;;;18.10;54.70;20.20;94503.00;;;;10477841;28;45191;-63
2022/07/10 00:27:03;;;;;;;0.32;0.30;;;18.00;54.60;20.20;94496.00;;;;10477744;28;45839;-63
2022/07/10 00:32:24;;;;;;;0.40;0.40;;;18.10;54.60;20.20;94502.00;;;;10478857;28;45266;-64
2022/07/10 00:37:45;;;;;;;0.30;0.30;;;18.10;54.60;20.20;94509.00;;;;10478322;28;45423;-63
2022/07/10 00:43:10;;;;;;;0.50;0.40;;;18.10;55.40;20.20;94501.00;;;;10477476;28;45205;-64
2022/07/10 00:48:30;;;;;;;0.40;0.40;;;18.00;54.70;20.20;94498.00;;;;10476873;28;45882;-63
2022/07/10 00:53:51;;;;;;;0.93;0.60;;;18.10;54.60;20.20;94497.00;;;;10478196;28;45694;-63
2022/07/10 00:59:13;;;;;;;0.50;0.40;;;18.00;54.60;20.20;94485.00;;;;10474727;28;45227;-64
2022/07/10 01:04:35;;;;;;;0.63;0.40;;;18.10;54.70;20.20;94486.00;;;;10473563;28;46005;-64
2022/07/10 01:09:59;;;;;;;0.20;0.20;;;18.00;54.60;20.20;94487.00;;;;10482221;28;45182;-63
2022/07/10 01:15:21;;;;;;;0.68;0.50;;;18.00;54.60;20.20;94488.00;;;;10482847;28;45214;-64
2022/07/10 01:20:42;;;;;;;0.40;0.30;;;18.00;54.60;20.20;94486.00;;;;10484691;28;45109;-64
2022/07/10 01:26:04;;;;;;;0.50;0.50;;;18.00;54.70;20.20;94468.00;;;;10484600;28;45173;-63
2022/07/10 01:31:27;;;;;;;0.60;0.40;;;18.00;54.60;20.20;94470.00;;;;10484495;28;45195;-63
2022/07/10 01:36:47;;;;;;;0.30;0.30;;;18.00;54.60;20.20;94481.00;;;;10484210;28;45994;-63
2022/07/10 01:42:09;;;;;;;0.40;0.30;;;18.00;54.70;20.20;94475.00;;;;10483596;28;45278;-64
2022/07/10 01:47:30;;;;;;;0.40;0.40;;;18.00;54.70;20.20;94470.00;;;;10482812;28;45906;-63
2022/07/10 01:52:50;;;;;;;0.40;0.40;;;18.00;54.70;20.20;94479.00;;;;10483650;28;45184;-64
2022/07/10 01:58:12;;;;;;;0.40;0.30;;;18.00;54.70;20.20;94468.00;;;;10483516;28;45788;-64
2022/07/10 02:09:11;;;;;;;0.50;0.50;;;18.00;54.70;20.20;94490.00;;;;10481295;28;45232;-63
2022/07/10 02:14:33;;;;;;;0.98;0.40;;;18.00;54.60;20.20;94483.00;;;;10481697;28;45779;-63
2022/07/10 02:19:54;;;;;;;0.50;0.40;;;18.00;54.70;20.20;94468.00;;;;10481038;28;45094;-63
2022/07/10 02:25:14;;;;;;;0.50;0.40;;;18.00;54.80;20.20;94477.00;;;;10481506;28;45704;-64
2022/07/10 02:30:36;;;;;;;0.30;0.30;;;18.00;54.70;20.10;94468.00;;;;10482753;28;45377;-63
2022/07/10 02:35:56;;;;;;;0.40;0.40;;;18.00;54.80;20.20;94479.00;;;;10482115;28;45256;-64
2022/07/10 02:41:17;;;;;;;0.65;0.40;;;18.00;54.70;20.20;94492.00;;;;10481855;28;45184;-63
2022/07/10 02:46:39;;;;;;;0.30;0.30;;;18.00;54.60;20.20;94490.00;;;;10481414;28;45471;-64
2022/07/10 02:51:59;;;;;;;0.40;0.40;;;18.00;54.70;20.10;94496.00;;;;10480876;28;45164;-64
2022/07/10 02:57:20;;;;;;;0.30;0.30;;;18.00;54.70;20.10;94486.00;;;;10481749;28;45355;-63
2022/07/10 03:02:41;;;;;;;0.20;0.20;;;18.00;54.70;20.20;94499.00;;;;10480193;28;45188;-64
2022/07/10 03:08:02;;;;;;;0.30;0.22;;;18.00;54.70;20.10;94492.00;;;;10480231;28;45696;-63
2022/07/10 03:13:23;;;;;;;0.30;0.30;;;18.00;54.70;20.10;94484.00;;;;10479935;28;45523;-63
2022/07/10 03:18:45;;;;;;;0.40;0.40;;;18.00;54.70;20.10;94487.00;;;;10479987;28;45178;-63
2022/07/10 03:24:06;;;;;;;0.20;0.20;;;18.00;54.60;20.10;94486.00;;;;10479413;28;45230;-63
2022/07/10 03:29:27;;;;;;;0.30;0.30;;;18.00;54.80;20.10;94494.00;;;;10479596;28;45436;-64
2022/07/10 03:34:49;;;;;;;0.55;0.40;;;18.00;54.70;20.10;94483.00;;;;10478970;28;45252;-64
2022/07/10 03:40:11;;;;;;;0.45;0.30;;;18.00;54.80;20.10;94493.00;;;;10478824;28;45205;-63
2022/07/10 03:45:31;;;;;;;0.30;0.30;;;18.00;54.70;20.10;94502.00;;;;10480047;28;45183;-63
2022/07/10 03:50:53;;;;;;;0.30;0.30;;;18.00;54.80;20.10;94484.00;;;;10478799;28;45455;-63
2022/07/10 03:57:53;;;;;;;0.40;0.40;;;18.00;54.70;20.10;94490.00;;;;10478045;28;45409;-64
2022/07/10 04:01:55;;;;;;;0.32;0.32;;;18.00;54.80;20.10;94489.00;;;;10479145;28;45313;-63
2022/07/10 04:07:16;;;;;;;0.30;0.30;;;18.00;54.60;20.10;94483.00;;;;10479438;28;45101;-63
2022/07/10 04:12:38;;;;;;;0.43;0.30;;;18.00;54.70;20.10;94489.00;;;;10477756;28;45287;-63
2022/07/10 04:17:58;;;;;;;0.70;0.50;;;17.90;54.70;20.10;94488.00;;;;10477935;28;45451;-63
2022/07/10 04:23:20;;;;;;;0.50;0.40;;;18.00;54.60;20.10;94490.00;;;;10478873;28;45422;-63
2022/07/10 04:28:41;;;;;;;0.43;0.43;;;17.90;54.70;20.10;94490.00;;;;10478358;28;45199;-64
2022/07/10 04:34:02;;;;;;;1.00;0.40;;;18.00;54.70;20.10;94497.00;;;;10476761;28;45465;-63
2022/07/10 04:39:24;;;;;;;0.32;0.32;;;17.90;55.30;20.10;94495.00;;;;10477849;28;45685;-64
2022/07/10 04:44:44;;;;;;;0.50;0.50;;;18.00;54.70;20.10;94484.00;;;;10477519;28;45152;-63
2022/07/10 04:50:07;;;;;;;1.00;0.60;;;18.00;54.60;20.10;94488.00;;;;10477934;28;45847;-63
2022/07/10 04:55:29;;;;;;;0.57;0.50;;;18.00;54.60;20.10;94485.00;;;;10476789;28;45399;-63
2022/07/10 05:00:50;;;;;;;0.80;0.57;;;18.00;54.70;20.10;94499.00;;;;10478032;28;45402;-63
2022/07/10 05:06:10;;;;;;;0.60;0.60;;;18.00;54.60;20.10;94500.00;;;;10476175;28;45237;-63
2022/07/10 05:11:32;;;;;;;1.45;0.60;;;18.00;55.30;20.10;94503.00;;;;10475321;28;45183;-63
2022/07/10 05:16:53;;;;;;;0.60;0.50;;;18.00;54.60;20.10;94504.00;;;;10474078;28;45167;-63
2022/07/10 05:22:14;;;;;;;0.60;0.60;;;18.00;54.60;20.10;94510.00;;;;10477217;28;45781;-63
2022/07/10 05:27:35;;;;;;;1.30;0.70;;;18.00;54.70;20.10;94503.00;;;;10477269;28;45159;-63
2022/07/10 05:32:56;;;;;;;0.68;0.60;;;18.00;54.70;20.10;94504.00;;;;10476637;28;45139;-64
2022/07/10 05:38:17;;;;;;;0.70;0.40;;;18.00;54.70;20.10;94516.00;;;;10475233;28;46275;-63
2022/07/10 05:43:39;;;;;;;0.50;0.50;;;18.00;54.60;20.10;94512.00;;;;10476472;28;45770;-63
2022/07/10 05:48:59;;;;;;;0.60;0.60;;;18.00;54.60;20.10;94517.00;;;;10475568;28;45381;-64
2022/07/10 05:54:20;;;;;;;0.40;0.40;;;18.00;54.70;20.10;94507.00;;;;10479887;28;45974;-64
2022/07/10 05:59:42;;;;;;;0.60;0.60;;;18.00;54.70;20.10;94497.00;;;;10483188;28;45264;-63
2022/07/10 06:05:03;;;;;;;1.90;0.50;;;18.00;54.60;20.10;94507.00;;;;10483087;28;45787;-63
2022/07/10 06:10:23;;;;;;;2.58;0.70;;;18.00;54.70;20.10;94501.00;;;;10481521;28;45210;-64
2022/07/10 06:15:45;;;;;;;0.95;0.57;;;18.00;54.50;20.10;94513.00;;;;10482387;28;45680;-64
2022/07/10 06:21:05;;;;;;;0.95;0.50;;;18.00;54.80;20.10;94496.00;;;;10480905;28;45746;-64
2022/07/10 06:26:26;;;;;;;1.38;0.50;;;18.00;54.80;20.10;94497.00;;;;10482336;28;45107;-64
2022/07/10 06:31:48;;;;;;;0.45;0.45;;;17.90;54.70;20.10;94494.00;;;;10482337;28;45281;-64
2022/07/10 06:37:08;;;;;;;0.40;0.40;;;18.10;54.80;20.10;94504.00;;;;10481652;28;45227;-64
2022/07/10 06:42:29;;;;;;;0.60;0.52;;;17.90;54.70;20.10;94513.00;;;;10481834;28;46062;-63
2022/07/10 06:47:57;;;;;;;0.75;0.60;;;18.00;54.80;20.10;94498.00;;;;10479789;28;45284;-64
2022/07/10 06:53:17;;;;;;;0.70;0.50;;;17.90;54.80;20.10;94509.00;;;;10480474;28;45106;-64
2022/07/10 06:58:38;;;;;;;0.63;0.50;;;17.90;54.80;20.10;94508.00;;;;10480392;28;45195;-64
2022/07/10 07:04:00;;;;;;;0.60;0.60;;;18.00;54.90;20.10;94513.00;;;;10479991;28;45242;-64
2022/07/10 07:09:21;;;;;;;0.60;0.60;;;17.90;54.80;20.10;94514.00;;;;10480113;28;45211;-64
2022/07/10 07:14:41;;;;;;;0.80;0.60;;;18.00;54.90;20.10;94515.00;;;;10480447;28;45167;-64
2022/07/10 07:25:46;;;;;;;0.52;0.50;;;17.90;54.80;20.10;94512.00;;;;10480022;28;45204;-64
2022/07/10 07:31:06;;;;;;;0.60;0.60;;;18.00;54.90;20.10;94512.00;;;;10480440;28;45716;-64
2022/07/10 07:36:28;;;;;;;1.08;0.60;;;18.00;54.90;20.10;94516.00;;;;10479222;28;45755;-64
2022/07/10 07:41:49;;;;;;;0.70;0.50;;;18.00;55.00;20.20;94517.00;;;;10479727;28;45225;-64
2022/07/10 07:47:09;;;;;;;0.73;0.60;;;18.00;54.80;20.10;94507.00;;;;10479348;28;45263;-64
2022/07/10 07:52:33;;;;;;;1.00;0.65;;;18.00;54.90;20.10;94512.00;;;;10479066;28;45218;-64
2022/07/10 07:57:56;;;;;;;0.80;0.68;;;18.00;54.90;20.20;94512.00;;;;10478695;28;45215;-64
2022/07/10 08:03:16;;;;;;;0.55;0.50;;;18.00;54.90;20.20;94520.00;;;;10479034;28;45882;-64
2022/07/10 08:08:38;;;;;;;1.67;0.95;;;18.00;54.90;20.20;94531.00;;;;10478160;28;45116;-69
2022/07/10 08:13:59;;;;;;;0.52;0.52;;;18.00;54.90;20.20;94513.00;;;;10478651;28;45146;-66
2022/07/10 08:19:19;;;;;;;0.60;0.60;;;18.00;54.80;20.20;94510.00;;;;10455799;28;45688;-66
2022/07/10 08:24:41;;;;;;;0.88;0.68;;;18.00;54.90;20.20;94502.00;;;;10435750;28;45171;-67
2022/07/10 08:30:02;;;;;;;1.75;0.70;;;18.00;55.00;20.20;94501.00;;;;10435146;28;45228;-66
2022/07/10 08:35:23;;;;;;;0.70;0.70;;;18.00;54.90;20.20;94511.00;;;;10435512;28;45284;-66
2022/07/10 08:40:46;;;;;;;1.08;0.52;;;18.00;55.00;20.20;94514.00;;;;10435687;28;45277;-66
2022/07/10 08:46:07;;;;;;;0.60;0.43;;;18.00;54.90;20.20;94503.00;;;;10435271;28;45788;-65
2022/07/10 08:51:37;;;;;;;0.57;0.40;;;18.00;55.00;20.20;94485.00;;;;10435606;28;45184;-65
2022/07/10 08:57:01;;;;;;;0.50;0.50;;;18.00;55.00;20.20;94492.00;;;;10435493;28;45103;-66
2022/07/10 09:02:22;;;;;;;1.42;0.68;;;18.00;55.00;20.20;94502.00;;;;10434929;28;45164;-66
2022/07/10 09:07:43;;;;;;;0.57;0.50;;;18.00;55.00;20.20;94477.00;;;;10435119;28;45243;-66
2022/07/10 09:13:05;;;;;;;0.40;0.40;;;18.00;54.90;20.20;94488.00;;;;10435002;28;45370;-65
2022/07/10 09:18:26;;;;;;;0.95;0.50;;;18.00;54.90;20.20;94503.00;;;;10434790;28;45204;-66
2022/07/10 09:23:47;;;;;;;0.57;0.57;;;18.00;54.90;20.20;94493.00;;;;10434859;28;45208;-65
2022/07/10 09:29:11;;;;;;;0.80;0.60;;;18.00;54.90;20.20;94498.00;;;;10438575;28;45786;-66
2022/07/10 09:34:40;;;;;;;0.52;0.47;;;18.00;54.90;20.20;94471.00;;;;10441537;28;45667;-66
2022/07/10 09:40:03;;;;;;;0.60;0.50;;;18.00;54.90;20.20;94497.00;;;;10441503;28;45139;-66
2022/07/10 09:45:25;;;;;;;0.50;0.50;;;18.10;54.90;20.20;94474.00;;;;10441863;28;45233;-66
2022/07/10 09:50:46;;;;;;;1.13;0.50;;;18.00;54.90;20.20;94485.00;;;;10440955;28;45199;-66
2022/07/10 09:56:09;;;;;;;0.65;0.50;;;18.00;54.90;20.20;94484.00;;;;10441070;28;45256;-65
2022/07/10 10:01:30;;;;;;;0.70;0.60;;;18.10;55.00;20.20;94470.00;;;;10440581;28;45208;-65
2022/07/10 10:06:53;;;;;;;0.45;0.45;;;18.10;54.90;20.20;94483.00;;;;10440406;28;45159;-65
2022/07/10 10:12:21;;;;;;;0.70;0.50;;;18.10;55.00;20.20;94466.00;;;;10438222;28;45211;-66
2022/07/10 10:17:44;;;;;;;0.75;0.50;;;18.00;54.90;20.20;94483.00;;;;10473116;28;45338;-66
2022/07/10 10:23:07;;;;;;;0.90;0.73;;;18.10;55.00;20.20;94473.00;;;;10478682;28;45282;-66
2022/07/10 10:28:28;;;;;;;1.08;0.60;;;18.00;54.90;20.20;94466.00;;;;10442518;28;45313;-66
2022/07/10 10:33:55;;;;;;;0.73;0.60;;;18.10;54.90;20.20;94463.00;;;;10436532;28;45220;-65
2022/07/10 10:39:18;;;;;;;1.70;0.53;;;18.10;54.90;20.20;94449.00;;;;10437169;28;45764;-65
2022/07/10 10:44:39;;;;;;;0.88;0.60;;;18.10;54.90;20.20;94448.00;;;;10439558;28;45215;-65
2022/07/10 10:50:02;;;;;;;0.80;0.60;;;18.00;54.80;20.30;94439.00;;;;10438930;28;45848;-65
2022/07/10 10:55:22;;;;;;;0.65;0.60;;;18.10;54.80;20.20;94445.00;;;;10438328;28;45412;-65
2022/07/10 11:00:43;;;;;;;0.98;0.80;;;18.10;54.80;20.30;94438.00;;;;10435860;28;45229;-65
2022/07/10 11:06:08;;;;;;;1.15;0.60;;;18.10;54.80;20.20;94438.00;;;;10437975;28;45262;-66
2022/07/10 11:11:42;;;;;;;2.40;1.00;;;18.10;54.90;20.30;94432.00;;;;10439070;28;45288;-65
2022/07/10 11:17:04;;;;;;;2.83;0.95;;;18.10;55.00;20.20;94423.00;;;;10439478;28;45167;-66
2022/07/10 11:22:53;;;;;;;1.77;0.70;;;18.10;55.00;20.20;94421.00;;;;10438865;28;45202;-66
2022/07/10 11:28:18;;;;;;;1.80;0.90;;;18.10;55.10;20.20;94420.00;;;;10438709;28;45245;-65
2022/07/10 11:33:44;;;;;;;1.30;0.77;;;18.10;55.10;20.20;94412.00;;;;10439016;28;45886;-65
2022/07/10 11:39:08;;;;;;;1.33;0.90;;;18.10;55.10;20.30;94410.00;;;;10438408;28;45351;-66
2022/07/10 11:44:29;;;;;;;2.33;1.00;;;18.10;55.20;20.20;94413.00;;;;10438690;28;45782;-65
2022/07/10 11:49:50;;;;;;;2.60;0.82;;;18.10;55.20;20.20;94395.00;;;;10437436;28;45290;-65
2022/07/10 11:55:20;;;;;;;2.47;0.98;;;18.10;55.20;20.30;94417.00;;;;10437962;28;45100;-65
2022/07/10 12:00:41;;;;;;;4.82;1.33;;;18.10;55.20;20.30;94404.00;;;;10437938;28;45708;-65
2022/07/10 12:06:06;;;;;;;2.85;1.15;;;18.10;55.10;20.30;94407.00;;;;10437856;28;45042;-65
2022/07/10 12:11:29;;;;;;;3.85;1.05;;;18.10;55.10;20.30;94412.00;;;;10482116;22;45880;-64
2022/07/10 12:16:52;;;;;;;2.28;0.90;;;18.10;55.10;20.20;94392.00;;;;10478139;28;45327;-64
2022/07/10 12:22:13;;;;;;;2.92;1.00;;;18.10;55.10;20.30;94401.00;;;;10477850;28;45273;-63
2022/07/10 12:27:42;;;;;;;2.55;0.98;;;18.10;55.10;20.20;94396.00;;;;10477626;28;45675;-64
2022/07/10 12:33:15;;;;;;;1.92;1.10;;;18.10;55.10;20.30;94406.00;;;;10477967;28;45652;-64
2022/07/10 12:38:36;;;;;;;3.22;0.93;;;18.10;55.10;20.30;94403.00;;;;10477052;28;45206;-64
2022/07/10 12:43:58;;;;;;;3.65;1.10;;;18.10;55.10;20.30;94403.00;;;;10477962;28;45399;-64
2022/07/10 12:49:19;;;;;;;2.45;0.90;;;18.10;55.10;20.30;94402.00;;;;10477375;28;45118;-64
2022/07/10 12:54:39;;;;;;;1.95;0.90;;;18.10;55.00;20.30;94400.00;;;;10476872;28;45919;-64
2022/07/10 13:00:12;;;;;;;2.28;0.90;;;18.10;55.10;20.30;94398.00;;;;10475556;28;45183;-64
2022/07/10 13:05:35;;;;;;;1.80;1.00;;;18.10;55.00;20.30;94388.00;;;;10482696;28;45330;-64
2022/07/10 13:10:59;;;;;;;2.15;0.85;;;18.20;55.00;20.30;94378.00;;;;10483445;28;45142;-64
2022/07/10 13:16:22;;;;;;;2.45;0.90;;;18.10;55.00;20.30;94386.00;;;;10483570;28;45095;-64
2022/07/10 13:21:43;;;;;;;2.42;1.05;;;18.10;55.00;20.30;94393.00;;;;10484017;28;45771;-64
2022/07/10 13:27:04;;;;;;;1.75;0.98;;;18.10;55.10;20.30;94384.00;;;;10483436;28;45382;-64
2022/07/10 13:32:27;;;;;;;1.88;0.90;;;18.20;55.10;20.30;94388.00;;;;10483268;28;45767;-64
2022/07/10 13:37:48;;;;;;;1.73;0.80;;;18.10;55.10;20.30;94387.00;;;;10481943;28;45208;-64
2022/07/10 13:43:08;;;;;;;3.33;1.25;;;18.20;55.10;20.30;94374.00;;;;10483217;28;45677;-64
2022/07/10 13:48:30;;;;;;;2.67;0.93;;;18.10;55.00;20.30;94387.00;;;;10483365;28;45300;-64
2022/07/10 13:53:51;;;;;;;1.63;0.75;;;18.10;55.00;20.30;94384.00;;;;10483044;28;45778;-63
2022/07/10 13:59:11;;;;;;;1.38;0.80;;;18.20;55.10;20.30;94368.00;;;;10482596;28;45177;-64
2022/07/10 14:04:33;;;;;;;2.33;1.00;;;18.20;55.10;20.30;94373.00;;;;10482826;28;45322;-63
2022/07/10 14:09:54;;;;;;;1.35;0.73;;;18.20;55.00;20.30;94366.00;;;;10481372;28;45257;-63
2022/07/10 14:15:14;;;;;;;1.77;0.90;;;18.20;55.00;20.40;94362.00;;;;10481230;28;45123;-63
2022/07/10 14:26:13;;;;;;;3.50;0.95;;;18.20;54.90;20.40;94356.00;;;;10481843;28;45746;-63
2022/07/10 14:31:34;;;;;;;2.03;0.90;;;18.20;54.90;20.40;94363.00;;;;10481685;28;45217;-63
2022/07/10 14:36:56;;;;;;;1.20;0.80;;;18.20;55.00;20.40;94355.00;;;;10481437;28;45885;-63
2022/07/10 14:42:16;;;;;;;1.95;0.88;;;18.20;55.60;20.40;94361.00;;;;10481647;28;45416;-63
2022/07/10 14:47:37;;;;;;;1.30;0.90;;;18.20;55.00;20.40;94371.00;;;;10480807;28;45198;-63
2022/07/10 14:52:59;;;;;;;1.48;0.90;;;18.30;55.00;20.40;94360.00;;;;10481473;28;45185;-63
2022/07/10 14:58:20;;;;;;;1.90;0.70;;;18.30;55.00;20.40;94375.00;;;;10480873;28;45854;-63
2022/07/10 15:03:40;;;;;;;1.90;0.80;;;18.30;55.00;20.40;94353.00;;;;10479018;28;45689;-62
2022/07/10 15:09:02;;;;;;;2.08;0.82;;;18.30;54.90;20.50;94357.00;;;;10479576;28;45437;-63
2022/07/10 15:14:24;;;;;;;1.65;0.90;;;18.30;54.90;20.50;94347.00;;;;10481434;28;45247;-63
2022/07/10 15:19:45;;;;;;;1.00;0.70;;;18.30;54.80;20.50;94345.00;;;;10479885;28;45163;-63
2022/07/10 15:25:08;;;;;;;2.58;1.00;;;18.40;54.80;20.50;94362.00;;;;10453537;28;45323;-63
2022/07/10 15:30:29;;;;;;;1.67;0.88;;;18.40;54.80;20.50;94351.00;;;;10465514;28;45144;-63
2022/07/10 15:35:50;;;;;;;1.25;0.80;;;18.40;54.70;20.60;94354.00;;;;10479188;28;45772;-64
2022/07/10 15:41:12;;;;;;;1.40;1.20;;;18.40;54.70;20.60;94374.00;;;;10467421;28;45842;-63
2022/07/10 15:46:32;;;;;;;1.55;0.85;;;18.50;54.60;20.60;94371.00;;;;10453662;28;45208;-64
2022/07/10 15:51:54;;;;;;;2.03;0.90;;;18.50;54.60;20.70;94355.00;;;;10478989;28;45205;-64
2022/07/10 15:57:16;;;;;;;2.58;1.08;;;18.50;54.50;20.70;94365.00;;;;10451453;28;45438;-64
2022/07/10 16:02:37;;;;;;;1.17;0.73;;;18.60;54.40;20.70;94361.00;;;;10437408;28;45190;-64
2022/07/10 16:07:59;;;;;;;1.25;0.80;;;18.60;54.30;20.70;94359.00;;;;10436845;28;45146;-64
2022/07/10 16:13:21;;;;;;;2.22;0.80;;;18.60;54.20;20.80;94364.00;;;;10437339;28;45237;-64
2022/07/10 16:18:41;;;;;;;1.63;0.90;;;18.70;54.20;20.80;94359.00;;;;10443612;28;45214;-64
2022/07/10 16:24:03;;;;;;;1.20;0.80;;;18.70;54.10;20.80;94361.00;;;;10437167;28;45391;-63
2022/07/10 16:29:25;;;;;;;1.77;0.80;;;18.70;54.00;20.80;94360.00;;;;10436623;28;45231;-63
2022/07/10 16:34:46;;;;;;;0.93;0.60;;;18.70;53.90;20.90;94371.00;;;;10437275;28;45270;-63
2022/07/10 16:40:09;;;;;;;1.60;0.70;;;18.80;53.70;20.90;94359.00;;;;10435647;28;45176;-63
2022/07/10 16:45:31;;;;;;;1.15;0.73;;;18.80;53.70;20.90;94368.00;;;;10436610;28;45847;-63
2022/07/10 16:50:52;;;;;;;1.55;0.80;;;18.80;53.50;20.90;94373.00;;;;10435596;28;45244;-64
2022/07/10 16:56:12;;;;;;;1.63;0.70;;;18.80;53.50;20.90;94356.00;;;;10430758;28;45233;-64
2022/07/10 17:01:34;;;;;;;1.30;0.70;;;18.80;53.30;20.90;94370.00;;;;10436233;28;45756;-63
2022/07/10 17:06:54;;;;;;;1.00;0.60;;;18.90;53.30;20.90;94366.00;;;;10435470;28;45693;-64
2022/07/10 17:12:16;;;;;;;1.58;0.77;;;18.90;53.20;20.90;94366.00;;;;10435738;28;45207;-64
2022/07/10 17:17:37;;;;;;;1.02;0.68;;;18.90;53.10;20.90;94369.00;;;;10434873;28;45797;-63
2022/07/10 17:22:58;;;;;;;1.13;0.73;;;18.80;53.00;20.90;94368.00;;;;10435552;28;45254;-65
2022/07/10 17:28:19;;;;;;;1.05;0.70;;;18.80;53.10;21.00;94378.00;;;;10435303;28;45147;-64
2022/07/10 17:33:40;;;;;;;1.17;0.60;;;18.80;53.00;20.90;94376.00;;;;10435462;28;45676;-64
2022/07/10 17:39:01;;;;;;;1.75;0.50;;;18.80;53.00;20.90;94386.00;;;;10434294;28;45685;-63
2022/07/10 17:44:21;;;;;;;0.93;0.60;;;18.80;53.00;20.90;94392.00;;;;10435348;28;45176;-64
2022/07/10 17:49:43;;;;;;;1.02;0.50;;;18.80;53.00;20.90;94393.00;;;;10438261;28;45164;-64
2022/07/10 17:55:04;;;;;;;1.30;0.80;;;18.80;53.10;20.90;94391.00;;;;10442279;28;45139;-64
2022/07/10 18:00:25;;;;;;;1.10;0.70;;;18.80;52.90;20.80;94380.00;;;;10441535;28;45474;-64
2022/07/10 18:05:47;;;;;;;1.00;0.50;;;18.70;53.10;20.90;94399.00;;;;10443597;28;45677;-64
2022/07/10 18:11:08;;;;;;;0.70;0.55;;;18.80;53.10;20.90;94396.00;;;;10449269;28;45303;-64
2022/07/10 18:16:29;;;;;;;1.58;0.50;;;18.80;53.00;20.90;94389.00;;;;10469469;28;45255;-64
2022/07/10 18:21:50;;;;;;;1.00;0.60;;;18.80;53.10;20.80;94395.00;;;;10476254;28;45209;-64
2022/07/10 18:27:11;;;;;;;0.63;0.40;;;18.70;53.20;20.80;94406.00;;;;10451000;28;45028;-64
2022/07/10 18:38:12;;;;;;;0.85;0.43;;;18.60;53.30;20.70;94415.00;;;;10481661;28;45159;-64
2022/07/10 18:43:33;;;;;;;0.52;0.43;;;18.60;53.50;20.70;94413.00;;;;10482254;28;45115;-64
2022/07/10 18:48:53;;;;;;;0.40;0.40;;;18.60;53.40;20.70;94422.00;;;;10481432;28;45163;-64
2022/07/10 18:54:16;;;;;;;1.42;0.50;;;18.60;53.50;20.70;94433.00;;;;10481721;28;45131;-64
2022/07/10 18:59:37;;;;;;;1.35;0.40;;;18.60;53.50;20.70;94428.00;;;;10479516;28;45705;-65
2022/07/10 19:04:57;;;;;;;0.47;0.40;;;18.60;53.60;20.70;94434.00;;;;10481282;28;45866;-64
2022/07/10 19:10:19;;;;;;;0.52;0.43;;;18.50;53.50;20.60;94424.00;;;;10480013;28;45363;-64
2022/07/10 19:15:40;;;;;;;0.65;0.40;;;18.50;53.60;20.60;94445.00;;;;10480121;28;45245;-65
2022/07/10 19:21:00;;;;;;;0.63;0.32;;;18.50;53.90;20.60;94456.00;;;;10480555;28;45220;-64
2022/07/10 19:26:24;;;;;;;0.20;0.20;;;18.50;53.60;20.60;94452.00;;;;10480206;28;45198;-64
2022/07/10 19:31:44;;;;;;;0.65;0.30;;;18.40;53.50;20.60;94455.00;;;;10479836;28;45232;-65
2022/07/10 19:37:06;;;;;;;0.40;0.30;;;18.40;53.50;20.60;94480.00;;;;10479619;28;45219;-65
2022/07/10 19:42:28;;;;;;;0.40;0.30;;;18.40;53.60;20.60;94472.00;;;;10480147;28;45877;-64
2022/07/10 19:47:51;;;;;;;0.47;0.40;;;18.40;53.60;20.60;94477.00;;;;10479479;28;45424;-64
2022/07/10 19:53:11;;;;;;;0.32;0.30;;;18.40;53.70;20.60;94488.00;;;;10479458;28;45676;-64
2022/07/10 19:58:34;;;;;;;0.30;0.30;;;18.40;53.60;20.60;94487.00;;;;10479169;28;45164;-64
2022/07/10 20:03:54;;;;;;;0.85;0.47;;;18.40;53.60;20.50;94500.00;;;;10479864;28;45203;-64
2022/07/10 20:09:15;;;;;;;0.82;0.47;;;18.40;53.70;20.60;94517.00;;;;10478600;28;45135;-64
2022/07/10 20:14:36;;;;;;;0.30;0.30;;;18.40;53.70;20.50;94516.00;;;;10478414;28;46102;-64
2022/07/10 20:19:57;;;;;;;0.60;0.40;;;18.40;53.60;20.50;94519.00;;;;10478346;28;45766;-64
2022/07/10 20:25:18;;;;;;;0.40;0.30;;;18.40;53.50;20.50;94527.00;;;;10478772;28;45238;-64
2022/07/10 20:30:41;;;;;;;0.20;0.20;;;18.30;53.60;20.50;94529.00;;;;10478086;28;45155;-64
2022/07/10 20:41:40;;;;;;;0.20;0.20;;;18.30;53.60;20.50;94519.00;;;;10478102;28;45164;-63
2022/07/10 20:47:02;;;;;;;0.40;0.32;;;18.30;53.80;20.50;94527.00;;;;10447773;28;45193;-64
2022/07/10 20:52:23;;;;;;;0.35;0.20;;;18.30;53.60;20.50;94540.00;;;;10448360;28;45362;-64
2022/07/10 20:57:44;;;;;;;0.20;0.20;;;18.30;53.40;20.50;94520.00;;;;10437136;28;45681;-64
2022/07/10 21:03:07;;;;;;;0.22;0.20;;;18.30;53.70;20.50;94543.00;;;;10470451;28;45759;-64
2022/07/10 21:08:28;;;;;;;0.45;0.32;;;18.30;53.40;20.50;94548.00;;;;10437634;28;45328;-64
2022/07/10 21:13:48;;;;;;;0.38;0.20;;;18.30;53.50;20.40;94553.00;;;;10440474;28;45264;-64
2022/07/10 21:19:10;;;;;;;0.47;0.20;;;18.30;53.60;20.40;94557.00;;;;10433288;28;45236;-64
2022/07/10 21:24:31;;;;;;;1.02;0.30;;;18.30;53.50;20.40;94560.00;;;;10437448;28;45455;-63
2022/07/10 21:29:51;;;;;;;0.82;0.40;;;18.30;53.50;20.40;94557.00;;;;10441354;28;45210;-64
2022/07/10 21:35:13;;;;;;;1.17;0.30;;;18.30;53.60;20.40;94557.00;;;;10442579;28;45337;-64
2022/07/10 21:40:34;;;;;;;0.20;0.20;;;18.30;53.60;20.40;94560.00;;;;10441884;28;45293;-63
2022/07/10 21:45:55;;;;;;;1.60;0.40;;;18.30;53.60;20.40;94546.00;;;;10441847;28;45178;-63
2022/07/10 21:51:17;;;;;;;0.40;0.20;;;18.20;53.40;20.40;94563.00;;;;10442302;28;45104;-63
2022/07/10 21:56:38;;;;;;;0.75;0.28;;;18.20;53.40;20.40;94557.00;;;;10441620;28;45831;-63
2022/07/10 22:01:58;;;;;;;0.77;0.20;;;18.20;53.50;20.40;94563.00;;;;10441673;28;45195;-63
2022/07/10 22:07:23;;;;;;;0.47;0.20;;;18.20;53.30;20.40;94561.00;;;;10441373;28;45685;-62
2022/07/10 22:12:44;;;;;;;1.10;0.20;;;18.20;53.50;20.40;94557.00;;;;10441097;28;45111;-63
2022/07/10 22:18:04;;;;;;;1.10;0.40;;;18.20;53.40;20.40;94558.00;;;;10441371;28;45697;-62
2022/07/10 22:23:26;;;;;;;0.63;0.20;;;18.20;53.10;20.30;94549.00;;;;10440205;28;45767;-63
2022/07/10 22:28:47;;;;;;;0.38;0.28;;;18.20;53.20;20.30;94544.00;;;;10440605;28;45650;-63
2022/07/10 22:34:08;;;;;;;0.90;0.30;;;18.20;53.40;20.30;94547.00;;;;10439954;28;45176;-63
2022/07/10 22:39:29;;;;;;;0.35;0.20;;;18.20;53.30;20.30;94550.00;;;;10440132;28;45200;-64
2022/07/10 22:44:50;;;;;;;0.30;0.20;;;18.20;53.30;20.30;94542.00;;;;10439935;28;45180;-63
2022/07/10 22:50:10;;;;;;;0.45;0.30;;;18.10;53.20;20.30;94537.00;;;;10440321;28;46067;-63
2022/07/10 22:55:33;;;;;;;0.43;0.20;;;18.10;53.30;20.30;94557.00;;;;10439851;28;45689;-63
2022/07/10 23:00:54;;;;;;;0.77;0.32;;;18.10;53.30;20.30;94552.00;;;;10439849;28;45119;-63
2022/07/10 23:06:15;;;;;;;1.23;0.20;;;18.10;53.20;20.30;94549.00;;;;10439633;28;45281;-63
2022/07/10 23:11:37;;;;;;;0.63;0.30;;;18.10;53.20;20.30;94545.00;;;;10439211;28;45721;-62
2022/07/10 23:16:58;;;;;;;1.30;0.40;;;18.10;53.20;20.30;94544.00;;;;10439197;28;45167;-62
2022/07/10 23:22:18;;;;;;;0.65;0.30;;;18.10;53.20;20.30;94544.00;;;;10438474;28;45683;-63
2022/07/10 23:27:41;;;;;;;0.60;0.30;;;18.10;53.10;20.30;94530.00;;;;10438674;28;45215;-62
2022/07/10 23:33:01;;;;;;;0.20;0.20;;;18.10;53.10;20.20;94531.00;;;;10438682;28;45781;-63
2022/07/10 23:38:22;;;;;;;0.60;0.20;;;18.00;53.10;20.20;94525.00;;;;10438417;28;45145;-64
2022/07/10 23:43:45;;;;;;;0.63;0.30;;;18.10;53.10;20.20;94524.00;;;;10438337;28;45356;-64
2022/07/10 23:54:44;;;;;;;0.57;0.30;;;18.00;53.10;20.20;94527.00;;;;10437956;28;45335;-64
